sensor_id;sensor_type;location;lat;lon;timestamp;P1;durP1;ratioP1;P2;durP2;ratioP2
25511;SDS011;13414;44.534;18.700;2024-01-30T00:01:40;261.60;;;139.30;;
25511;SDS011;13414;44.534;18.700;2024-01-30T00:04:08;255.65;;;140.27;;
25511;SDS011;13414;44.534;18.700;2024-01-30T00:06:38;250.40;;;136.65;;
25511;SDS011;13414;44.534;18.700;2024-01-30T00:09:05;249.80;;;132.40;;
25511;SDS011;13414;44.534;18.700;2024-01-30T00:11:34;242.15;;;130.15;;
25511;SDS011;13414;44.534;18.700;2024-01-30T00:14:02;232.07;;;126.03;;
25511;SDS011;13414;44.534;18.700;2024-01-30T00:16:29;229.85;;;125.78;;
25511;SDS011;13414;44.534;18.700;2024-01-30T00:18:57;241.73;;;129.00;;
25511;SDS011;13414;44.534;18.700;2024-01-30T00:21:27;248.70;;;133.80;;
25511;SDS011;13414;44.534;18.700;2024-01-30T00:23:56;242.15;;;132.57;;
25511;SDS011;13414;44.534;18.700;2024-01-30T00:26:24;241.32;;;131.32;;
25511;SDS011;13414;44.534;18.700;2024-01-30T00:28:51;223.05;;;125.93;;
25511;SDS011;13414;44.534;18.700;2024-01-30T00:31:19;220.43;;;123.97;;
25511;SDS011;13414;44.534;18.700;2024-01-30T00:33:47;229.68;;;122.47;;
25511;SDS011;13414;44.534;18.700;2024-01-30T00:36:14;226.38;;;122.45;;
25511;SDS011;13414;44.534;18.700;2024-01-30T00:38:42;220.80;;;121.57;;
25511;SDS011;13414;44.534;18.700;2024-01-30T00:41:11;240.10;;;128.88;;
25511;SDS011;13414;44.534;18.700;2024-01-30T00:43:39;223.55;;;127.25;;
25511;SDS011;13414;44.534;18.700;2024-01-30T00:46:07;225.88;;;124.43;;
25511;SDS011;13414;44.534;18.700;2024-01-30T00:48:34;216.60;;;119.40;;
25511;SDS011;13414;44.534;18.700;2024-01-30T00:51:02;209.32;;;113.07;;
25511;SDS011;13414;44.534;18.700;2024-01-30T00:53:30;196.25;;;110.53;;
25511;SDS011;13414;44.534;18.700;2024-01-30T00:55:59;194.60;;;106.00;;
25511;SDS011;13414;44.534;18.700;2024-01-30T00:58:28;193.27;;;104.75;;
25511;SDS011;13414;44.534;18.700;2024-01-30T01:00:55;207.07;;;107.90;;
25511;SDS011;13414;44.534;18.700;2024-01-30T01:03:23;180.40;;;97.95;;
25511;SDS011;13414;44.534;18.700;2024-01-30T01:05:50;178.27;;;100.03;;
25511;SDS011;13414;44.534;18.700;2024-01-30T01:08:18;186.25;;;106.45;;
25511;SDS011;13414;44.534;18.700;2024-01-30T01:10:45;195.77;;;111.10;;
25511;SDS011;13414;44.534;18.700;2024-01-30T01:13:13;218.00;;;123.25;;
25511;SDS011;13414;44.534;18.700;2024-01-30T01:15:42;231.65;;;124.60;;
25511;SDS011;13414;44.534;18.700;2024-01-30T01:18:09;218.90;;;120.75;;
25511;SDS011;13414;44.534;18.700;2024-01-30T01:20:37;218.05;;;115.75;;
25511;SDS011;13414;44.534;18.700;2024-01-30T01:23:04;190.38;;;105.57;;
25511;SDS011;13414;44.534;18.700;2024-01-30T01:25:32;185.80;;;104.45;;
25511;SDS011;13414;44.534;18.700;2024-01-30T01:27:59;199.20;;;110.40;;
25511;SDS011;13414;44.534;18.700;2024-01-30T01:30:27;207.63;;;113.68;;
25511;SDS011;13414;44.534;18.700;2024-01-30T01:32:56;203.88;;;111.38;;
25511;SDS011;13414;44.534;18.700;2024-01-30T01:35:26;191.68;;;106.03;;
25511;SDS011;13414;44.534;18.700;2024-01-30T01:37:53;191.73;;;104.78;;
25511;SDS011;13414;44.534;18.700;2024-01-30T01:40:22;212.85;;;113.35;;
25511;SDS011;13414;44.534;18.700;2024-01-30T01:42:50;225.13;;;122.95;;
25511;SDS011;13414;44.534;18.700;2024-01-30T01:45:18;226.63;;;122.32;;
25511;SDS011;13414;44.534;18.700;2024-01-30T01:47:47;206.32;;;113.15;;
25511;SDS011;13414;44.534;18.700;2024-01-30T01:50:18;193.40;;;105.60;;
25511;SDS011;13414;44.534;18.700;2024-01-30T01:52:47;190.57;;;104.47;;
25511;SDS011;13414;44.534;18.700;2024-01-30T01:55:15;186.60;;;102.35;;
25511;SDS011;13414;44.534;18.700;2024-01-30T01:57:44;174.75;;;98.85;;
25511;SDS011;13414;44.534;18.700;2024-01-30T02:00:12;176.05;;;95.43;;
25511;SDS011;13414;44.534;18.700;2024-01-30T02:02:41;181.57;;;98.55;;
25511;SDS011;13414;44.534;18.700;2024-01-30T02:05:10;176.13;;;99.22;;
25511;SDS011;13414;44.534;18.700;2024-01-30T02:07:39;170.98;;;92.15;;
25511;SDS011;13414;44.534;18.700;2024-01-30T02:10:07;154.15;;;87.55;;
25511;SDS011;13414;44.534;18.700;2024-01-30T02:12:35;161.35;;;89.78;;
25511;SDS011;13414;44.534;18.700;2024-01-30T02:15:03;157.40;;;86.30;;
25511;SDS011;13414;44.534;18.700;2024-01-30T02:17:32;156.38;;;85.50;;
25511;SDS011;13414;44.534;18.700;2024-01-30T02:20:00;161.15;;;91.05;;
25511;SDS011;13414;44.534;18.700;2024-01-30T02:22:30;162.85;;;91.82;;
25511;SDS011;13414;44.534;18.700;2024-01-30T02:24:59;153.38;;;81.60;;
25511;SDS011;13414;44.534;18.700;2024-01-30T02:27:26;149.10;;;81.60;;
25511;SDS011;13414;44.534;18.700;2024-01-30T02:29:53;154.88;;;83.95;;
25511;SDS011;13414;44.534;18.700;2024-01-30T02:32:21;146.85;;;81.93;;
25511;SDS011;13414;44.534;18.700;2024-01-30T02:34:48;146.60;;;79.20;;
25511;SDS011;13414;44.534;18.700;2024-01-30T02:37:16;151.43;;;79.47;;
25511;SDS011;13414;44.534;18.700;2024-01-30T02:39:45;133.82;;;74.22;;
25511;SDS011;13414;44.534;18.700;2024-01-30T02:42:12;133.43;;;75.85;;
25511;SDS011;13414;44.534;18.700;2024-01-30T02:44:41;128.07;;;70.07;;
25511;SDS011;13414;44.534;18.700;2024-01-30T02:47:08;124.03;;;66.80;;
25511;SDS011;13414;44.534;18.700;2024-01-30T02:49:36;117.13;;;66.97;;
25511;SDS011;13414;44.534;18.700;2024-01-30T02:52:03;108.80;;;62.50;;
25511;SDS011;13414;44.534;18.700;2024-01-30T02:54:31;109.18;;;59.88;;
25511;SDS011;13414;44.534;18.700;2024-01-30T02:57:00;108.38;;;62.58;;
25511;SDS011;13414;44.534;18.700;2024-01-30T02:59:27;115.63;;;64.25;;
25511;SDS011;13414;44.534;18.700;2024-01-30T03:01:55;116.93;;;68.18;;
25511;SDS011;13414;44.534;18.700;2024-01-30T03:04:22;121.80;;;69.75;;
25511;SDS011;13414;44.534;18.700;2024-01-30T03:06:50;129.10;;;72.78;;
25511;SDS011;13414;44.534;18.700;2024-01-30T03:09:18;133.95;;;73.95;;
25511;SDS011;13414;44.534;18.700;2024-01-30T03:11:45;125.60;;;71.78;;
25511;SDS011;13414;44.534;18.700;2024-01-30T03:14:14;124.20;;;71.97;;
25511;SDS011;13414;44.534;18.700;2024-01-30T03:16:42;128.20;;;71.05;;
25511;SDS011;13414;44.534;18.700;2024-01-30T03:19:09;130.07;;;71.38;;
25511;SDS011;13414;44.534;18.700;2024-01-30T03:21:37;120.63;;;68.32;;
25511;SDS011;13414;44.534;18.700;2024-01-30T03:24:06;134.35;;;74.13;;
25511;SDS011;13414;44.534;18.700;2024-01-30T03:26:34;131.30;;;75.80;;
25511;SDS011;13414;44.534;18.700;2024-01-30T03:29:02;120.53;;;70.93;;
25511;SDS011;13414;44.534;18.700;2024-01-30T03:31:30;130.60;;;73.45;;
25511;SDS011;13414;44.534;18.700;2024-01-30T03:33:58;130.73;;;74.07;;
25511;SDS011;13414;44.534;18.700;2024-01-30T03:36:25;122.68;;;66.72;;
25511;SDS011;13414;44.534;18.700;2024-01-30T03:38:53;105.43;;;60.85;;
25511;SDS011;13414;44.534;18.700;2024-01-30T03:41:20;97.43;;;58.67;;
25511;SDS011;13414;44.534;18.700;2024-01-30T03:43:48;88.97;;;52.28;;
25511;SDS011;13414;44.534;18.700;2024-01-30T03:46:15;88.80;;;50.72;;
25511;SDS011;13414;44.534;18.700;2024-01-30T03:48:45;85.95;;;50.95;;
25511;SDS011;13414;44.534;18.700;2024-01-30T03:51:12;86.18;;;50.83;;
25511;SDS011;13414;44.534;18.700;2024-01-30T03:53:41;88.95;;;50.10;;
25511;SDS011;13414;44.534;18.700;2024-01-30T03:56:09;93.95;;;52.33;;
25511;SDS011;13414;44.534;18.700;2024-01-30T03:58:37;91.57;;;53.83;;
25511;SDS011;13414;44.534;18.700;2024-01-30T04:01:04;94.10;;;54.03;;
25511;SDS011;13414;44.534;18.700;2024-01-30T04:03:32;98.88;;;54.08;;
25511;SDS011;13414;44.534;18.700;2024-01-30T04:06:01;98.53;;;56.45;;
25511;SDS011;13414;44.534;18.700;2024-01-30T04:08:28;104.10;;;59.63;;
25511;SDS011;13414;44.534;18.700;2024-01-30T04:10:56;109.85;;;63.40;;
25511;SDS011;13414;44.534;18.700;2024-01-30T04:13:23;108.25;;;64.80;;
25511;SDS011;13414;44.534;18.700;2024-01-30T04:15:52;107.95;;;65.97;;
25511;SDS011;13414;44.534;18.700;2024-01-30T04:18:23;112.82;;;65.70;;
25511;SDS011;13414;44.534;18.700;2024-01-30T04:20:51;114.40;;;63.85;;
25511;SDS011;13414;44.534;18.700;2024-01-30T04:23:20;117.60;;;64.78;;
25511;SDS011;13414;44.534;18.700;2024-01-30T04:25:48;109.55;;;63.05;;
25511;SDS011;13414;44.534;18.700;2024-01-30T04:28:15;117.50;;;64.95;;
25511;SDS011;13414;44.534;18.700;2024-01-30T04:30:43;120.97;;;64.50;;
25511;SDS011;13414;44.534;18.700;2024-01-30T04:33:11;103.78;;;57.22;;
25511;SDS011;13414;44.534;18.700;2024-01-30T04:35:38;104.88;;;56.17;;
25511;SDS011;13414;44.534;18.700;2024-01-30T04:38:08;104.03;;;58.78;;
25511;SDS011;13414;44.534;18.700;2024-01-30T04:40:43;103.60;;;55.55;;
25511;SDS011;13414;44.534;18.700;2024-01-30T04:43:18;93.82;;;53.17;;
25511;SDS011;13414;44.534;18.700;2024-01-30T04:45:47;96.20;;;54.93;;
25511;SDS011;13414;44.534;18.700;2024-01-30T04:48:15;101.03;;;57.08;;
25511;SDS011;13414;44.534;18.700;2024-01-30T04:50:45;103.85;;;60.78;;
25511;SDS011;13414;44.534;18.700;2024-01-30T04:53:12;109.90;;;61.63;;
25511;SDS011;13414;44.534;18.700;2024-01-30T04:58:11;138.60;;;78.80;;
25511;SDS011;13414;44.534;18.700;2024-01-30T05:00:39;121.75;;;66.97;;
25511;SDS011;13414;44.534;18.700;2024-01-30T05:03:06;109.78;;;58.05;;
25511;SDS011;13414;44.534;18.700;2024-01-30T05:05:34;101.43;;;58.60;;
25511;SDS011;13414;44.534;18.700;2024-01-30T05:08:01;108.30;;;60.55;;
25511;SDS011;13414;44.534;18.700;2024-01-30T05:10:29;110.05;;;59.58;;
25511;SDS011;13414;44.534;18.700;2024-01-30T05:12:57;99.85;;;58.63;;
25511;SDS011;13414;44.534;18.700;2024-01-30T05:15:26;116.65;;;62.42;;
25511;SDS011;13414;44.534;18.700;2024-01-30T05:17:53;125.72;;;68.13;;
25511;SDS011;13414;44.534;18.700;2024-01-30T05:20:21;127.13;;;69.10;;
25511;SDS011;13414;44.534;18.700;2024-01-30T05:22:50;119.90;;;68.43;;
25511;SDS011;13414;44.534;18.700;2024-01-30T05:25:17;143.07;;;82.10;;
25511;SDS011;13414;44.534;18.700;2024-01-30T05:27:45;142.43;;;85.13;;
25511;SDS011;13414;44.534;18.700;2024-01-30T05:30:13;140.73;;;80.20;;
25511;SDS011;13414;44.534;18.700;2024-01-30T05:32:42;146.85;;;80.80;;
25511;SDS011;13414;44.534;18.700;2024-01-30T05:35:10;136.57;;;78.07;;
25511;SDS011;13414;44.534;18.700;2024-01-30T05:37:39;133.63;;;78.32;;
25511;SDS011;13414;44.534;18.700;2024-01-30T05:40:07;124.20;;;70.78;;
25511;SDS011;13414;44.534;18.700;2024-01-30T05:42:35;128.93;;;71.18;;
25511;SDS011;13414;44.534;18.700;2024-01-30T05:45:02;143.60;;;79.60;;
25511;SDS011;13414;44.534;18.700;2024-01-30T05:47:30;159.68;;;84.38;;
25511;SDS011;13414;44.534;18.700;2024-01-30T05:49:59;166.73;;;93.68;;
25511;SDS011;13414;44.534;18.700;2024-01-30T05:52:27;164.82;;;93.13;;
25511;SDS011;13414;44.534;18.700;2024-01-30T05:54:55;142.43;;;81.05;;
25511;SDS011;13414;44.534;18.700;2024-01-30T05:57:22;159.55;;;87.65;;
25511;SDS011;13414;44.534;18.700;2024-01-30T05:59:50;147.38;;;83.60;;
25511;SDS011;13414;44.534;18.700;2024-01-30T06:02:17;161.63;;;90.15;;
25511;SDS011;13414;44.534;18.700;2024-01-30T06:04:45;197.68;;;103.32;;
25511;SDS011;13414;44.534;18.700;2024-01-30T06:07:20;183.85;;;99.65;;
25511;SDS011;13414;44.534;18.700;2024-01-30T06:09:48;167.10;;;93.82;;
25511;SDS011;13414;44.534;18.700;2024-01-30T06:12:15;189.75;;;110.20;;
25511;SDS011;13414;44.534;18.700;2024-01-30T06:14:43;215.05;;;125.88;;
25511;SDS011;13414;44.534;18.700;2024-01-30T06:17:11;196.27;;;111.95;;
25511;SDS011;13414;44.534;18.700;2024-01-30T06:19:39;183.93;;;102.57;;
25511;SDS011;13414;44.534;18.700;2024-01-30T06:22:07;191.98;;;108.88;;
25511;SDS011;13414;44.534;18.700;2024-01-30T06:24:35;191.43;;;109.43;;
25511;SDS011;13414;44.534;18.700;2024-01-30T06:27:03;172.73;;;95.50;;
25511;SDS011;13414;44.534;18.700;2024-01-30T06:29:31;186.88;;;102.75;;
25511;SDS011;13414;44.534;18.700;2024-01-30T06:31:59;192.02;;;103.72;;
25511;SDS011;13414;44.534;18.700;2024-01-30T06:34:26;193.90;;;108.40;;
25511;SDS011;13414;44.534;18.700;2024-01-30T06:36:53;209.95;;;114.05;;
25511;SDS011;13414;44.534;18.700;2024-01-30T06:39:21;211.60;;;112.95;;
25511;SDS011;13414;44.534;18.700;2024-01-30T06:41:50;227.55;;;120.63;;
25511;SDS011;13414;44.534;18.700;2024-01-30T06:44:19;226.02;;;119.38;;
25511;SDS011;13414;44.534;18.700;2024-01-30T06:46:46;227.88;;;120.50;;
25511;SDS011;13414;44.534;18.700;2024-01-30T06:49:14;226.55;;;119.05;;
25511;SDS011;13414;44.534;18.700;2024-01-30T06:51:42;231.43;;;120.22;;
25511;SDS011;13414;44.534;18.700;2024-01-30T06:54:09;219.48;;;116.63;;
25511;SDS011;13414;44.534;18.700;2024-01-30T06:56:37;237.48;;;124.43;;
25511;SDS011;13414;44.534;18.700;2024-01-30T06:59:06;239.20;;;128.55;;
25511;SDS011;13414;44.534;18.700;2024-01-30T07:01:34;233.63;;;125.93;;
25511;SDS011;13414;44.534;18.700;2024-01-30T07:04:03;234.63;;;127.50;;
25511;SDS011;13414;44.534;18.700;2024-01-30T07:06:30;223.40;;;122.50;;
25511;SDS011;13414;44.534;18.700;2024-01-30T07:08:58;238.45;;;128.82;;
25511;SDS011;13414;44.534;18.700;2024-01-30T07:11:25;268.27;;;143.88;;
25511;SDS011;13414;44.534;18.700;2024-01-30T07:13:54;259.27;;;140.25;;
25511;SDS011;13414;44.534;18.700;2024-01-30T07:16:23;261.77;;;144.05;;
25511;SDS011;13414;44.534;18.700;2024-01-30T07:18:50;242.05;;;137.13;;
25511;SDS011;13414;44.534;18.700;2024-01-30T07:21:18;234.10;;;132.43;;
25511;SDS011;13414;44.534;18.700;2024-01-30T07:23:47;231.38;;;129.45;;
25511;SDS011;13414;44.534;18.700;2024-01-30T07:26:14;221.27;;;128.68;;
25511;SDS011;13414;44.534;18.700;2024-01-30T07:28:42;222.35;;;123.53;;
25511;SDS011;13414;44.534;18.700;2024-01-30T07:31:09;206.23;;;119.65;;
25511;SDS011;13414;44.534;18.700;2024-01-30T07:33:38;214.57;;;121.05;;
25511;SDS011;13414;44.534;18.700;2024-01-30T07:36:07;216.70;;;123.32;;
25511;SDS011;13414;44.534;18.700;2024-01-30T07:38:54;208.82;;;117.85;;
25511;SDS011;13414;44.534;18.700;2024-01-30T07:41:26;205.52;;;119.10;;
25511;SDS011;13414;44.534;18.700;2024-01-30T07:44:06;208.45;;;119.57;;
25511;SDS011;13414;44.534;18.700;2024-01-30T07:46:41;184.10;;;107.45;;
25511;SDS011;13414;44.534;18.700;2024-01-30T07:49:18;232.98;;;133.32;;
25511;SDS011;13414;44.534;18.700;2024-01-30T07:51:46;259.95;;;148.05;;
25511;SDS011;13414;44.534;18.700;2024-01-30T07:54:13;269.40;;;152.48;;
25511;SDS011;13414;44.534;18.700;2024-01-30T07:56:41;238.18;;;139.60;;
25511;SDS011;13414;44.534;18.700;2024-01-30T07:59:11;258.25;;;151.40;;
25511;SDS011;13414;44.534;18.700;2024-01-30T08:01:39;242.65;;;137.40;;
25511;SDS011;13414;44.534;18.700;2024-01-30T08:04:07;240.10;;;137.52;;
25511;SDS011;13414;44.534;18.700;2024-01-30T08:06:35;238.60;;;139.70;;
25511;SDS011;13414;44.534;18.700;2024-01-30T08:09:03;227.02;;;134.60;;
25511;SDS011;13414;44.534;18.700;2024-01-30T08:11:31;222.05;;;131.65;;
25511;SDS011;13414;44.534;18.700;2024-01-30T08:13:58;242.05;;;144.68;;
25511;SDS011;13414;44.534;18.700;2024-01-30T08:16:26;242.23;;;143.00;;
25511;SDS011;13414;44.534;18.700;2024-01-30T08:18:53;251.27;;;145.35;;
25511;SDS011;13414;44.534;18.700;2024-01-30T08:21:23;241.45;;;144.48;;
25511;SDS011;13414;44.534;18.700;2024-01-30T08:23:52;220.65;;;130.27;;
25511;SDS011;13414;44.534;18.700;2024-01-30T08:26:19;202.88;;;121.07;;
25511;SDS011;13414;44.534;18.700;2024-01-30T08:28:47;177.30;;;105.88;;
25511;SDS011;13414;44.534;18.700;2024-01-30T08:31:15;153.65;;;90.32;;
25511;SDS011;13414;44.534;18.700;2024-01-30T08:33:43;147.00;;;85.38;;
25511;SDS011;13414;44.534;18.700;2024-01-30T08:36:10;142.75;;;86.03;;
25511;SDS011;13414;44.534;18.700;2024-01-30T08:38:41;144.05;;;83.93;;
25511;SDS011;13414;44.534;18.700;2024-01-30T08:41:10;140.23;;;81.60;;
25511;SDS011;13414;44.534;18.700;2024-01-30T08:43:37;143.32;;;79.40;;
25511;SDS011;13414;44.534;18.700;2024-01-30T08:46:05;138.27;;;77.78;;
25511;SDS011;13414;44.534;18.700;2024-01-30T08:48:33;149.68;;;82.78;;
25511;SDS011;13414;44.534;18.700;2024-01-30T08:51:02;153.55;;;86.40;;
25511;SDS011;13414;44.534;18.700;2024-01-30T08:53:33;156.38;;;89.55;;
25511;SDS011;13414;44.534;18.700;2024-01-30T08:56:02;156.02;;;88.93;;
25511;SDS011;13414;44.534;18.700;2024-01-30T08:58:33;149.23;;;83.72;;
25511;SDS011;13414;44.534;18.700;2024-01-30T09:01:01;137.50;;;77.78;;
25511;SDS011;13414;44.534;18.700;2024-01-30T09:03:30;115.32;;;66.57;;
25511;SDS011;13414;44.534;18.700;2024-01-30T09:05:58;124.65;;;70.30;;
25511;SDS011;13414;44.534;18.700;2024-01-30T09:08:25;117.53;;;65.53;;
25511;SDS011;13414;44.534;18.700;2024-01-30T09:10:53;122.70;;;72.18;;
25511;SDS011;13414;44.534;18.700;2024-01-30T09:13:20;110.10;;;63.00;;
25511;SDS011;13414;44.534;18.700;2024-01-30T09:15:49;99.00;;;56.35;;
25511;SDS011;13414;44.534;18.700;2024-01-30T09:18:18;109.90;;;61.08;;
25511;SDS011;13414;44.534;18.700;2024-01-30T09:20:45;117.95;;;65.63;;
25511;SDS011;13414;44.534;18.700;2024-01-30T09:23:13;95.90;;;54.00;;
25511;SDS011;13414;44.534;18.700;2024-01-30T09:25:40;102.00;;;56.00;;
25511;SDS011;13414;44.534;18.700;2024-01-30T09:28:08;110.50;;;59.67;;
25511;SDS011;13414;44.534;18.700;2024-01-30T09:30:35;128.30;;;68.85;;
25511;SDS011;13414;44.534;18.700;2024-01-30T09:33:04;128.13;;;69.38;;
25511;SDS011;13414;44.534;18.700;2024-01-30T09:35:33;123.72;;;71.07;;
25511;SDS011;13414;44.534;18.700;2024-01-30T09:38:06;121.50;;;66.70;;
25511;SDS011;13414;44.534;18.700;2024-01-30T09:40:37;112.80;;;64.18;;
25511;SDS011;13414;44.534;18.700;2024-01-30T09:43:08;128.75;;;68.68;;
25511;SDS011;13414;44.534;18.700;2024-01-30T09:45:50;116.28;;;63.33;;
25511;SDS011;13414;44.534;18.700;2024-01-30T09:51:16;128.70;;;70.57;;
25511;SDS011;13414;44.534;18.700;2024-01-30T09:53:45;124.72;;;69.43;;
25511;SDS011;13414;44.534;18.700;2024-01-30T09:56:13;108.55;;;63.65;;
25511;SDS011;13414;44.534;18.700;2024-01-30T09:58:42;100.22;;;55.75;;
25511;SDS011;13414;44.534;18.700;2024-01-30T10:01:09;102.97;;;57.30;;
25511;SDS011;13414;44.534;18.700;2024-01-30T10:03:37;93.25;;;51.38;;
25511;SDS011;13414;44.534;18.700;2024-01-30T10:06:06;91.72;;;52.92;;
25511;SDS011;13414;44.534;18.700;2024-01-30T10:08:34;90.18;;;51.15;;
25511;SDS011;13414;44.534;18.700;2024-01-30T10:11:02;102.03;;;56.50;;
25511;SDS011;13414;44.534;18.700;2024-01-30T10:13:30;98.25;;;56.55;;
25511;SDS011;13414;44.534;18.700;2024-01-30T10:15:57;97.65;;;55.05;;
25511;SDS011;13414;44.534;18.700;2024-01-30T10:18:25;99.43;;;56.15;;
25511;SDS011;13414;44.534;18.700;2024-01-30T10:20:52;89.82;;;53.92;;
25511;SDS011;13414;44.534;18.700;2024-01-30T10:23:21;92.70;;;53.63;;
25511;SDS011;13414;44.534;18.700;2024-01-30T10:25:49;88.05;;;52.97;;
25511;SDS011;13414;44.534;18.700;2024-01-30T10:28:18;85.75;;;53.33;;
25511;SDS011;13414;44.534;18.700;2024-01-30T10:30:47;77.90;;;44.83;;
25511;SDS011;13414;44.534;18.700;2024-01-30T10:33:24;68.00;;;40.00;;
25511;SDS011;13414;44.534;18.700;2024-01-30T10:35:53;67.53;;;40.28;;
25511;SDS011;13414;44.534;18.700;2024-01-30T10:38:26;72.38;;;41.50;;
25511;SDS011;13414;44.534;18.700;2024-01-30T10:40:56;57.00;;;33.63;;
25511;SDS011;13414;44.534;18.700;2024-01-30T10:43:25;56.45;;;32.92;;
25511;SDS011;13414;44.534;18.700;2024-01-30T10:46:00;56.28;;;34.08;;
25511;SDS011;13414;44.534;18.700;2024-01-30T10:48:39;53.17;;;31.27;;
25511;SDS011;13414;44.534;18.700;2024-01-30T10:51:12;44.35;;;26.80;;
25511;SDS011;13414;44.534;18.700;2024-01-30T10:53:42;49.63;;;28.83;;
25511;SDS011;13414;44.534;18.700;2024-01-30T10:56:14;52.15;;;30.67;;
25511;SDS011;13414;44.534;18.700;2024-01-30T10:58:42;38.70;;;22.33;;
25511;SDS011;13414;44.534;18.700;2024-01-30T11:01:10;32.88;;;19.90;;
25511;SDS011;13414;44.534;18.700;2024-01-30T11:03:39;38.85;;;22.55;;
25511;SDS011;13414;44.534;18.700;2024-01-30T11:06:10;33.17;;;20.55;;
25511;SDS011;13414;44.534;18.700;2024-01-30T11:08:39;37.10;;;21.90;;
25511;SDS011;13414;44.534;18.700;2024-01-30T11:11:09;39.65;;;19.92;;
25511;SDS011;13414;44.534;18.700;2024-01-30T11:13:37;33.78;;;20.58;;
25511;SDS011;13414;44.534;18.700;2024-01-30T11:16:05;30.45;;;16.85;;
25511;SDS011;13414;44.534;18.700;2024-01-30T11:18:33;26.52;;;15.25;;
25511;SDS011;13414;44.534;18.700;2024-01-30T11:21:04;37.53;;;21.58;;
25511;SDS011;13414;44.534;18.700;2024-01-30T11:23:33;29.13;;;17.73;;
25511;SDS011;13414;44.534;18.700;2024-01-30T11:26:01;21.55;;;13.88;;
25511;SDS011;13414;44.534;18.700;2024-01-30T11:28:35;20.65;;;12.45;;
25511;SDS011;13414;44.534;18.700;2024-01-30T11:31:05;20.52;;;11.88;;
25511;SDS011;13414;44.534;18.700;2024-01-30T11:33:33;23.95;;;12.43;;
25511;SDS011;13414;44.534;18.700;2024-01-30T11:36:01;16.48;;;10.52;;
25511;SDS011;13414;44.534;18.700;2024-01-30T11:38:32;13.95;;;7.55;;
25511;SDS011;13414;44.534;18.700;2024-01-30T11:40:59;14.43;;;6.60;;
25511;SDS011;13414;44.534;18.700;2024-01-30T11:43:28;14.27;;;8.30;;
25511;SDS011;13414;44.534;18.700;2024-01-30T11:45:57;17.33;;;9.02;;
25511;SDS011;13414;44.534;18.700;2024-01-30T11:48:25;17.27;;;9.20;;
25511;SDS011;13414;44.534;18.700;2024-01-30T11:50:53;15.63;;;8.68;;
25511;SDS011;13414;44.534;18.700;2024-01-30T11:53:22;18.83;;;10.75;;
25511;SDS011;13414;44.534;18.700;2024-01-30T11:55:50;18.35;;;9.32;;
25511;SDS011;13414;44.534;18.700;2024-01-30T11:58:18;19.40;;;9.75;;
25511;SDS011;13414;44.534;18.700;2024-01-30T12:00:52;18.98;;;10.88;;
25511;SDS011;13414;44.534;18.700;2024-01-30T12:03:22;22.85;;;13.00;;
25511;SDS011;13414;44.534;18.700;2024-01-30T12:05:54;12.30;;;7.82;;
25511;SDS011;13414;44.534;18.700;2024-01-30T12:08:23;19.75;;;9.00;;
25511;SDS011;13414;44.534;18.700;2024-01-30T12:10:55;18.85;;;8.93;;
25511;SDS011;13414;44.534;18.700;2024-01-30T12:13:24;20.63;;;12.75;;
25511;SDS011;13414;44.534;18.700;2024-01-30T12:15:53;14.05;;;8.20;;
25511;SDS011;13414;44.534;18.700;2024-01-30T12:18:20;15.52;;;9.10;;
25511;SDS011;13414;44.534;18.700;2024-01-30T12:20:56;15.80;;;8.73;;
25511;SDS011;13414;44.534;18.700;2024-01-30T12:23:25;17.33;;;8.50;;
25511;SDS011;13414;44.534;18.700;2024-01-30T12:25:53;16.55;;;10.30;;
25511;SDS011;13414;44.534;18.700;2024-01-30T12:28:21;17.25;;;9.80;;
25511;SDS011;13414;44.534;18.700;2024-01-30T12:30:49;14.60;;;8.82;;
25511;SDS011;13414;44.534;18.700;2024-01-30T12:33:16;14.63;;;7.40;;
25511;SDS011;13414;44.534;18.700;2024-01-30T12:35:49;11.45;;;6.60;;
25511;SDS011;13414;44.534;18.700;2024-01-30T12:38:19;13.32;;;7.50;;
25511;SDS011;13414;44.534;18.700;2024-01-30T12:40:46;11.38;;;6.45;;
25511;SDS011;13414;44.534;18.700;2024-01-30T12:43:14;17.02;;;6.93;;
25511;SDS011;13414;44.534;18.700;2024-01-30T12:45:42;12.00;;;6.38;;
25511;SDS011;13414;44.534;18.700;2024-01-30T12:48:09;11.32;;;7.40;;
25511;SDS011;13414;44.534;18.700;2024-01-30T12:50:37;17.05;;;7.07;;
25511;SDS011;13414;44.534;18.700;2024-01-30T12:53:06;12.32;;;6.13;;
25511;SDS011;13414;44.534;18.700;2024-01-30T12:55:34;10.80;;;5.68;;
25511;SDS011;13414;44.534;18.700;2024-01-30T12:58:02;9.73;;;5.53;;
25511;SDS011;13414;44.534;18.700;2024-01-30T13:00:29;13.00;;;6.85;;
25511;SDS011;13414;44.534;18.700;2024-01-30T13:02:56;12.85;;;7.10;;
25511;SDS011;13414;44.534;18.700;2024-01-30T13:05:24;14.85;;;6.07;;
25511;SDS011;13414;44.534;18.700;2024-01-30T13:07:52;11.10;;;5.80;;
25511;SDS011;13414;44.534;18.700;2024-01-30T13:10:23;15.05;;;5.60;;
25511;SDS011;13414;44.534;18.700;2024-01-30T13:12:50;8.98;;;4.38;;
25511;SDS011;13414;44.534;18.700;2024-01-30T13:15:17;9.48;;;4.82;;
25511;SDS011;13414;44.534;18.700;2024-01-30T13:17:45;10.45;;;4.85;;
25511;SDS011;13414;44.534;18.700;2024-01-30T13:20:14;10.80;;;6.10;;
25511;SDS011;13414;44.534;18.700;2024-01-30T13:22:45;11.45;;;6.50;;
25511;SDS011;13414;44.534;18.700;2024-01-30T13:25:14;9.00;;;5.40;;
25511;SDS011;13414;44.534;18.700;2024-01-30T13:27:43;12.30;;;7.82;;
25511;SDS011;13414;44.534;18.700;2024-01-30T13:30:11;9.57;;;6.30;;
25511;SDS011;13414;44.534;18.700;2024-01-30T13:32:39;9.27;;;5.78;;
25511;SDS011;13414;44.534;18.700;2024-01-30T13:35:09;10.27;;;5.25;;
25511;SDS011;13414;44.534;18.700;2024-01-30T13:37:37;9.88;;;5.72;;
25511;SDS011;13414;44.534;18.700;2024-01-30T13:40:08;13.45;;;7.35;;
25511;SDS011;13414;44.534;18.700;2024-01-30T13:42:36;15.38;;;9.30;;
25511;SDS011;13414;44.534;18.700;2024-01-30T13:45:08;16.35;;;9.27;;
25511;SDS011;13414;44.534;18.700;2024-01-30T13:47:36;10.30;;;6.03;;
25511;SDS011;13414;44.534;18.700;2024-01-30T13:50:04;14.93;;;6.10;;
25511;SDS011;13414;44.534;18.700;2024-01-30T13:52:33;13.35;;;6.85;;
25511;SDS011;13414;44.534;18.700;2024-01-30T13:55:01;13.80;;;8.30;;
25511;SDS011;13414;44.534;18.700;2024-01-30T13:57:29;12.60;;;6.28;;
25511;SDS011;13414;44.534;18.700;2024-01-30T14:00:00;12.13;;;6.82;;
25511;SDS011;13414;44.534;18.700;2024-01-30T14:02:41;11.25;;;6.00;;
25511;SDS011;13414;44.534;18.700;2024-01-30T14:05:13;11.05;;;4.97;;
25511;SDS011;13414;44.534;18.700;2024-01-30T14:07:40;15.77;;;9.60;;
25511;SDS011;13414;44.534;18.700;2024-01-30T14:10:09;14.52;;;7.05;;
25511;SDS011;13414;44.534;18.700;2024-01-30T14:12:37;18.48;;;8.68;;